Time;durP1;ratioP1;P1;durP2;ratioP2;P2;SDS_P1;SDS_P2;PMS_P1;PMS_P2;Temp;Humidity;BMP_temperature;BMP_pressure;BME280_temperature;BME280_humidity;BME280_pressure;Samples;Min_cycle;Max_cycle;Signal;HPM_P1;HPM_P2
2021/06/30 00:01:08;;;;;;;;;;;;;;;22.55;82.75;100528.13;5035880;28;1910;-44
2021/06/30 00:03:34;;;;;;;;;;;;;;;22.48;82.35;100519.84;5037516;28;1061;-44
2021/06/30 00:06:02;;;;;;;;;;;;;;;22.47;83.21;100510.06;5037470;28;1084;-44
2021/06/30 00:08:28;;;;;;;;;;;;;;;22.47;83.17;100512.78;5037359;28;1027;-44
2021/06/30 00:10:55;;;;;;;;;;;;;;;22.49;83.44;100507.22;5038028;28;1085;-44
2021/06/30 00:13:24;;;;;;;;;;;;;;;22.41;82.72;100514.25;5037032;28;1159;-44
2021/06/30 00:15:50;;;;;;;;;;;;;;;22.43;83.63;100525.72;5036999;28;1084;-44
2021/06/30 00:18:17;;;;;;;;;;;;;;;22.44;82.95;100518.47;5037224;28;1111;-44
2021/06/30 00:20:43;;;;;;;;;;;;;;;22.48;83.56;100508.22;5036659;28;1902;-44
2021/06/30 00:23:11;;;;;;;;;;;;;;;22.47;85.22;100531.63;5036757;28;1146;-44
2021/06/30 00:25:38;;;;;;;;;;;;;;;22.18;81.43;100537.38;5037039;28;992;-44
2021/06/30 00:28:04;;;;;;;;;;;;;;;22.21;83.30;100535.22;5036663;28;1236;-44
2021/06/30 00:30:31;;;;;;;;;;;;;;;22.32;83.00;100530.56;5036576;28;1083;-44
2021/06/30 00:32:57;;;;;;;;;;;;;;;22.44;84.51;100540.91;5036629;28;1092;-44
2021/06/30 00:35:24;;;;;;;;;;;;;;;22.45;84.34;100536.34;5036941;28;990;-44
2021/06/30 00:37:50;;;;;;;;;;;;;;;22.46;84.44;100543.41;5036735;28;1190;-44
2021/06/30 00:40:19;;;;;;;;;;;;;;;22.48;84.53;100545.94;5036731;28;1505;-44
2021/06/30 00:42:46;;;;;;;;;;;;;;;22.46;82.74;100539.88;5036777;28;1081;-44
2021/06/30 00:45:16;;;;;;;;;;;;;;;22.43;85.17;100535.66;5036353;28;1166;-45
2021/06/30 00:47:42;;;;;;;;;;;;;;;22.43;84.55;100532.97;5036695;28;1073;-44
2021/06/30 00:50:09;;;;;;;;;;;;;;;22.44;84.55;100530.13;5036280;28;1251;-44
2021/06/30 00:52:36;;;;;;;;;;;;;;;22.43;81.79;100533.81;5036634;28;1009;-44
2021/06/30 00:55:03;;;;;;;;;;;;;;;22.43;77.79;100544.59;5036276;28;1115;-44
2021/06/30 00:57:31;;;;;;;;;;;;;;;22.44;77.48;100546.28;5036133;28;1233;-44
2021/06/30 00:59:58;;;;;;;;;;;;;;;22.41;77.34;100540.38;5036210;28;1411;-44
2021/06/30 01:02:24;;;;;;;;;;;;;;;22.42;77.72;100525.88;5036347;28;1910;-44
2021/06/30 01:04:51;;;;;;;;;;;;;;;22.38;81.71;100541.56;5036119;28;1099;-44
2021/06/30 01:07:18;;;;;;;;;;;;;;;22.39;82.34;100537.00;5036365;28;1038;-44
2021/06/30 01:09:44;;;;;;;;;;;;;;;22.39;77.42;100545.91;5036238;28;993;-44
2021/06/30 01:12:11;;;;;;;;;;;;;;;22.41;78.35;100529.59;5035524;28;1080;-44
2021/06/30 01:14:40;;;;;;;;;;;;;;;22.39;76.79;100537.84;5036245;28;1081;-44
2021/06/30 01:17:07;;;;;;;;;;;;;;;22.33;76.61;100534.97;5036184;28;1003;-44
2021/06/30 01:19:37;;;;;;;;;;;;;;;22.32;77.09;100525.19;5036065;28;1088;-45
2021/06/30 01:22:04;;;;;;;;;;;;;;;22.32;81.40;100523.34;5036007;28;1979;-44
2021/06/30 01:24:32;;;;;;;;;;;;;;;22.29;81.95;100522.81;5036046;28;1075;-44
2021/06/30 01:26:58;;;;;;;;;;;;;;;22.32;78.92;100542.22;5035970;28;1093;-44
2021/06/30 01:29:25;;;;;;;;;;;;;;;22.29;82.81;100529.06;5035920;28;1081;-44
2021/06/30 01:31:52;;;;;;;;;;;;;;;22.26;82.20;100534.75;5035813;28;994;-44
2021/06/30 01:34:19;;;;;;;;;;;;;;;22.22;82.03;100547.69;5035851;28;1077;-44
2021/06/30 01:36:46;;;;;;;;;;;;;;;22.27;79.80;100541.00;5035793;28;1085;-44
2021/06/30 01:39:13;;;;;;;;;;;;;;;22.28;80.27;100516.56;5035625;28;1926;-45
2021/06/30 01:41:41;;;;;;;;;;;;;;;22.33;80.43;100540.34;5035522;28;1977;-44
2021/06/30 01:44:07;;;;;;;;;;;;;;;22.30;76.18;100554.97;5035343;28;1075;-45
2021/06/30 01:46:34;;;;;;;;;;;;;;;22.25;75.67;100549.25;5035498;28;2067;-44
2021/06/30 01:49:00;;;;;;;;;;;;;;;22.28;78.25;100551.59;5035418;28;1118;-45
2021/06/30 01:51:27;;;;;;;;;;;;;;;22.26;78.83;100563.53;5035529;28;1041;-44
2021/06/30 01:53:54;;;;;;;;;;;;;;;22.30;76.49;100557.66;5035193;28;1186;-44
2021/06/30 01:56:22;;;;;;;;;;;;;;;22.24;75.78;100561.88;5035040;28;1108;-44
2021/06/30 01:58:55;;;;;;;;;;;;;;;22.24;75.76;100558.31;5035419;28;1081;-44
2021/06/30 02:01:29;;;;;;;;;;;;;;;22.27;77.10;100543.69;5133651;23;3733;-44
2021/06/30 02:03:55;;;;;;;;;;;;;;;22.27;76.74;100560.69;5055137;28;1045;-42
2021/06/30 02:06:22;;;;;;;;;;;;;;;22.27;78.20;100544.53;5055191;28;1006;-42
2021/06/30 02:08:48;;;;;;;;;;;;;;;22.22;79.96;100557.59;5054733;28;1086;-42
2021/06/30 02:11:15;;;;;;;;;;;;;;;22.17;80.43;100543.78;5055061;28;1076;-43
2021/06/30 02:13:41;;;;;;;;;;;;;;;22.19;79.36;100556.09;5054969;28;1008;-42
2021/06/30 02:16:09;;;;;;;;;;;;;;;22.23;75.48;100560.13;5054978;28;1083;-42
2021/06/30 02:18:36;;;;;;;;;;;;;;;22.15;75.38;100562.81;5054913;28;1039;-42
2021/06/30 02:21:02;;;;;;;;;;;;;;;22.13;74.95;100580.97;5054759;28;1906;-42
2021/06/30 02:23:29;;;;;;;;;;;;;;;22.17;75.20;100566.16;5053677;28;1086;-42
2021/06/30 02:25:55;;;;;;;;;;;;;;;22.17;78.17;100576.94;5054467;28;1141;-42
2021/06/30 02:28:22;;;;;;;;;;;;;;;22.15;81.02;100568.19;5054394;28;1098;-42
2021/06/30 02:30:48;;;;;;;;;;;;;;;22.16;78.48;100572.59;5054697;28;1068;-42
2021/06/30 02:33:16;;;;;;;;;;;;;;;22.20;76.56;100579.34;5054619;28;1058;-42
2021/06/30 02:35:43;;;;;;;;;;;;;;;22.17;78.71;100573.41;5054578;28;1003;-42
2021/06/30 02:38:09;;;;;;;;;;;;;;;22.10;78.36;100570.50;5054209;28;1075;-42
2021/06/30 02:40:36;;;;;;;;;;;;;;;22.14;75.21;100581.81;5054168;28;1520;-42
2021/06/30 02:43:03;;;;;;;;;;;;;;;22.14;75.04;100566.47;5054097;28;1910;-42
2021/06/30 02:45:30;;;;;;;;;;;;;;;22.12;75.86;100581.97;5054331;28;966;-42
2021/06/30 02:47:57;;;;;;;;;;;;;;;22.11;77.55;100579.44;5054355;28;1046;-42
2021/06/30 02:50:25;;;;;;;;;;;;;;;22.19;75.74;100588.41;5054343;28;1039;-42
2021/06/30 02:52:52;;;;;;;;;;;;;;;22.15;77.36;100578.97;5053994;28;1079;-42
2021/06/30 02:55:19;;;;;;;;;;;;;;;22.15;75.34;100584.34;5054155;28;1079;-42
2021/06/30 02:57:45;;;;;;;;;;;;;;;22.19;76.49;100576.78;5054236;28;1046;-42
2021/06/30 03:00:13;;;;;;;;;;;;;;;22.18;74.68;100584.03;5053881;28;1225;-42
2021/06/30 03:02:40;;;;;;;;;;;;;;;22.14;75.23;100571.88;5052276;28;1898;-42
2021/06/30 03:05:07;;;;;;;;;;;;;;;22.15;74.58;100584.34;5053699;28;1067;-42
2021/06/30 03:07:35;;;;;;;;;;;;;;;22.16;78.21;100590.56;5054042;28;1002;-42
2021/06/30 03:10:02;;;;;;;;;;;;;;;22.16;74.87;100591.44;5054017;28;1076;-42
2021/06/30 03:12:28;;;;;;;;;;;;;;;22.12;74.13;100583.81;5053662;28;1098;-42
2021/06/30 03:14:55;;;;;;;;;;;;;;;22.12;76.15;100591.91;5054232;28;1003;-42
2021/06/30 03:17:21;;;;;;;;;;;;;;;22.11;79.08;100580.28;5053681;28;1110;-42
2021/06/30 03:19:48;;;;;;;;;;;;;;;22.07;77.82;100584.31;5053572;28;1071;-42
2021/06/30 03:22:14;;;;;;;;;;;;;;;22.08;79.52;100583.28;5053801;28;1981;-42
2021/06/30 03:24:42;;;;;;;;;;;;;;;22.13;80.74;100586.34;5053475;28;1177;-42
2021/06/30 03:27:08;;;;;;;;;;;;;;;22.17;78.64;100592.28;5053747;28;1035;-42
2021/06/30 03:29:35;;;;;;;;;;;;;;;22.18;76.12;100577.78;5053378;28;1150;-42
2021/06/30 03:32:01;;;;;;;;;;;;;;;22.24;74.86;100586.13;5053705;28;1107;-42
2021/06/30 03:34:28;;;;;;;;;;;;;;;22.24;74.72;100582.56;5053511;28;1084;-42
2021/06/30 03:36:54;;;;;;;;;;;;;;;22.21;74.65;100586.38;5053688;28;996;-42
2021/06/30 03:39:21;;;;;;;;;;;;;;;22.16;75.10;100591.44;5053275;28;1166;-43
2021/06/30 03:41:48;;;;;;;;;;;;;;;22.20;74.98;100587.41;5053053;28;1902;-42
2021/06/30 03:44:15;;;;;;;;;;;;;;;22.26;75.32;100583.22;5053598;28;1000;-42
2021/06/30 03:46:41;;;;;;;;;;;;;;;22.27;75.11;100586.78;5053286;28;1102;-42
2021/06/30 03:49:08;;;;;;;;;;;;;;;22.29;75.05;100588.31;5053553;28;957;-42
2021/06/30 03:51:34;;;;;;;;;;;;;;;22.32;75.81;100587.13;5053553;28;997;-42
2021/06/30 03:54:01;;;;;;;;;;;;;;;22.36;75.34;100583.97;5053478;28;1945;-42
2021/06/30 03:56:27;;;;;;;;;;;;;;;22.42;75.49;100583.31;5052887;28;1147;-42
2021/06/30 03:59:02;;;;;;;;;;;;;;;22.46;75.90;100586.50;5053194;28;1094;-43
2021/06/30 04:01:28;;;;;;;;;;;;;;;22.43;75.68;100574.22;5051615;28;1910;-43
2021/06/30 04:03:56;;;;;;;;;;;;;;;22.49;75.57;100586.19;5053368;28;1024;-42
2021/06/30 04:06:22;;;;;;;;;;;;;;;22.51;75.25;100594.13;5053324;28;1026;-42
2021/06/30 04:08:49;;;;;;;;;;;;;;;22.49;75.01;100585.38;5053073;28;1079;-42
2021/06/30 04:11:16;;;;;;;;;;;;;;;22.54;75.40;100591.09;5053354;28;1180;-42
2021/06/30 04:13:42;;;;;;;;;;;;;;;22.62;75.49;100581.19;5053242;28;1043;-42
2021/06/30 04:16:10;;;;;;;;;;;;;;;22.68;75.61;100581.53;5053176;28;1092;-42
2021/06/30 04:18:37;;;;;;;;;;;;;;;22.75;75.68;100585.28;5051247;28;1095;-43
2021/06/30 04:21:03;;;;;;;;;;;;;;;22.78;75.71;100579.53;5052979;28;1034;-42
2021/06/30 04:23:30;;;;;;;;;;;;;;;22.83;75.92;100579.91;5052841;28;1902;-42
2021/06/30 04:25:56;;;;;;;;;;;;;;;22.85;75.29;100569.78;5052913;28;1138;-42
2021/06/30 04:28:23;;;;;;;;;;;;;;;22.87;75.66;100562.38;5053194;28;1058;-42
2021/06/30 04:30:49;;;;;;;;;;;;;;;22.88;75.89;100569.47;5053064;28;997;-42
2021/06/30 04:33:17;;;;;;;;;;;;;;;22.92;75.98;100565.44;5052860;28;1157;-42
2021/06/30 04:35:44;;;;;;;;;;;;;;;22.94;76.10;100563.41;5053081;28;1002;-42
2021/06/30 04:38:10;;;;;;;;;;;;;;;22.96;75.98;100572.19;5053081;28;1081;-42
2021/06/30 04:40:37;;;;;;;;;;;;;;;22.97;76.02;100562.22;5052806;28;1175;-42
2021/06/30 04:43:03;;;;;;;;;;;;;;;22.96;76.34;100566.78;5052915;28;1981;-42
2021/06/30 04:45:30;;;;;;;;;;;;;;;23.07;76.46;100567.50;5052750;28;1205;-42
2021/06/30 04:47:56;;;;;;;;;;;;;;;23.06;76.77;100560.41;5056676;28;1008;-42
2021/06/30 04:50:24;;;;;;;;;;;;;;;23.10;76.41;100568.00;5056631;28;1009;-42
2021/06/30 04:52:51;;;;;;;;;;;;;;;23.09;76.52;100554.69;5056470;28;1001;-42
2021/06/30 04:55:17;;;;;;;;;;;;;;;23.09;76.77;100560.09;5056543;28;1084;-42
2021/06/30 04:57:43;;;;;;;;;;;;;;;23.14;76.51;100563.09;5056184;28;1111;-42
2021/06/30 05:00:10;;;;;;;;;;;;;;;23.14;76.62;100560.41;5056117;28;1158;-42
2021/06/30 05:02:37;;;;;;;;;;;;;;;23.19;76.80;100566.16;5054591;28;1984;-42
2021/06/30 05:05:04;;;;;;;;;;;;;;;23.15;76.94;100554.00;5056249;28;1077;-42
2021/06/30 05:07:32;;;;;;;;;;;;;;;23.17;76.90;100552.00;5056265;28;1007;-42
2021/06/30 05:09:59;;;;;;;;;;;;;;;23.20;77.07;100563.28;5055906;28;1332;-42
2021/06/30 05:12:25;;;;;;;;;;;;;;;23.21;76.72;100564.97;5055882;28;1079;-42
2021/06/30 05:14:52;;;;;;;;;;;;;;;23.23;77.13;100562.94;5056159;28;1031;-42
2021/06/30 05:17:18;;;;;;;;;;;;;;;23.23;76.88;100562.09;5056187;28;1080;-42
2021/06/30 05:19:44;;;;;;;;;;;;;;;23.23;76.88;100568.34;5056093;28;1080;-42
2021/06/30 05:22:11;;;;;;;;;;;;;;;23.25;77.57;100568.16;5055667;28;1906;-42
2021/06/30 05:24:39;;;;;;;;;;;;;;;23.26;76.91;100577.97;5055669;28;1095;-42
2021/06/30 05:27:05;;;;;;;;;;;;;;;23.27;77.10;100558.06;5055935;28;1076;-42
2021/06/30 05:29:32;;;;;;;;;;;;;;;23.25;77.48;100557.38;5055818;28;1040;-42
2021/06/30 05:31:58;;;;;;;;;;;;;;;23.30;77.34;100560.44;5055802;28;1015;-42
2021/06/30 05:34:25;;;;;;;;;;;;;;;23.29;77.06;100561.44;5055495;28;1151;-42
2021/06/30 05:36:52;;;;;;;;;;;;;;;23.33;77.63;100561.94;5055727;28;999;-42
2021/06/30 05:39:20;;;;;;;;;;;;;;;23.31;77.16;100559.41;5055391;28;1068;-42
2021/06/30 05:41:48;;;;;;;;;;;;;;;23.33;77.64;100553.84;5055219;28;1104;-42
2021/06/30 05:44:15;;;;;;;;;;;;;;;23.32;77.49;100557.56;5055577;28;1910;-42
2021/06/30 05:46:42;;;;;;;;;;;;;;;23.37;78.12;100557.88;5055295;28;1130;-42
2021/06/30 05:49:09;;;;;;;;;;;;;;;23.31;77.21;100554.00;5055220;28;1094;-42
2021/06/30 05:51:35;;;;;;;;;;;;;;;23.37;77.66;100566.81;5055194;28;1142;-42
2021/06/30 05:54:02;;;;;;;;;;;;;;;23.35;77.62;100555.34;5055061;28;1391;-42
2021/06/30 05:56:28;;;;;;;;;;;;;;;23.36;77.79;100556.22;5055404;28;961;-42
2021/06/30 05:58:56;;;;;;;;;;;;;;;23.38;77.58;100570.38;5055355;28;1088;-42
2021/06/30 06:01:23;;;;;;;;;;;;;;;23.39;77.63;100567.50;5055174;28;1464;-42
2021/06/30 06:03:49;;;;;;;;;;;;;;;23.41;77.56;100565.47;5053565;28;1906;-41
2021/06/30 06:06:15;;;;;;;;;;;;;;;23.45;77.67;100581.34;5054825;28;1095;-42
2021/06/30 06:08:42;;;;;;;;;;;;;;;23.45;77.58;100574.06;5054828;28;1345;-42
2021/06/30 06:11:11;;;;;;;;;;;;;;;23.45;78.07;100568.66;5055165;28;1001;-42
2021/06/30 06:13:38;;;;;;;;;;;;;;;23.48;77.47;100570.22;5054761;28;1123;-42
2021/06/30 06:16:06;;;;;;;;;;;;;;;23.46;77.74;100573.06;5055171;28;1046;-42
2021/06/30 06:18:32;;;;;;;;;;;;;;;23.46;77.76;100569.50;5054861;28;1064;-42
2021/06/30 06:20:59;;;;;;;;;;;;;;;23.50;77.82;100566.31;5054884;28;1007;-42
2021/06/30 06:23:25;;;;;;;;;;;;;;;23.47;78.02;100560.41;5054460;28;1975;-42
2021/06/30 06:25:51;;;;;;;;;;;;;;;23.50;77.99;100562.78;5054517;28;1111;-42
2021/06/30 06:28:19;;;;;;;;;;;;;;;23.51;77.69;100569.84;5054418;28;1162;-42
2021/06/30 06:30:48;;;;;;;;;;;;;;;23.49;77.92;100558.38;5054645;28;1054;-42
2021/06/30 06:33:16;;;;;;;;;;;;;;;23.50;78.19;100547.44;5054426;28;1127;-42
2021/06/30 06:35:42;;;;;;;;;;;;;;;23.51;78.00;100538.31;5054307;28;1178;-42
2021/06/30 06:38:09;;;;;;;;;;;;;;;23.51;78.37;100550.97;5054279;28;1146;-42
2021/06/30 06:40:35;;;;;;;;;;;;;;;23.49;78.33;100544.88;5054231;28;1103;-42
2021/06/30 06:43:02;;;;;;;;;;;;;;;23.55;77.71;100547.75;5054347;28;1926;-42
2021/06/30 06:45:28;;;;;;;;;;;;;;;23.53;78.11;100551.63;5054511;28;1000;-42
2021/06/30 06:47:55;;;;;;;;;;;;;;;23.53;78.13;100546.22;5054439;28;1000;-43
2021/06/30 06:50:22;;;;;;;;;;;;;;;23.52;78.20;100542.69;5054052;28;1103;-42
2021/06/30 06:52:49;;;;;;;;;;;;;;;23.54;77.88;100547.94;5053975;28;1131;-42
2021/06/30 06:55:15;;;;;;;;;;;;;;;23.53;78.24;100546.22;5054241;28;1044;-42
2021/06/30 06:57:42;;;;;;;;;;;;;;;23.57;78.08;100547.56;5054251;28;1039;-42
2021/06/30 07:00:09;;;;;;;;;;;;;;;23.57;78.22;100544.88;5054625;28;2060;-42
2021/06/30 07:02:35;;;;;;;;;;;;;;;23.54;78.75;100529.03;5052287;28;1910;-42
2021/06/30 07:05:02;;;;;;;;;;;;;;;23.55;78.50;100536.94;5054001;28;1013;-43
2021/06/30 07:07:29;;;;;;;;;;;;;;;23.55;78.20;100544.22;5053812;28;1171;-42
2021/06/30 07:09:56;;;;;;;;;;;;;;;23.59;78.06;100545.53;5053326;28;1158;-42
2021/06/30 07:12:23;;;;;;;;;;;;;;;23.57;78.13;100543.00;5053694;28;1178;-42
2021/06/30 07:14:49;;;;;;;;;;;;;;;23.58;78.02;100543.88;5053934;28;994;-42
2021/06/30 07:17:16;;;;;;;;;;;;;;;23.60;78.41;100539.16;5053565;28;1103;-42
2021/06/30 07:19:42;;;;;;;;;;;;;;;23.59;78.59;100537.44;5053876;28;1086;-42
2021/06/30 07:22:09;;;;;;;;;;;;;;;23.61;78.39;100538.13;5053837;28;999;-42
2021/06/30 07:24:37;;;;;;;;;;;;;;;23.58;78.56;100541.19;5053754;28;1902;-42
2021/06/30 07:27:03;;;;;;;;;;;;;;;23.62;78.43;100550.63;5053488;28;1067;-42
2021/06/30 07:29:30;;;;;;;;;;;;;;;23.60;78.34;100531.06;5053323;28;1119;-42
2021/06/30 07:31:56;;;;;;;;;;;;;;;23.63;78.29;100536.09;5053426;28;1095;-42
2021/06/30 07:34:22;;;;;;;;;;;;;;;23.65;78.74;100536.75;5053395;28;1075;-42
2021/06/30 07:36:49;;;;;;;;;;;;;;;23.63;78.65;100525.28;5053700;28;994;-42
2021/06/30 07:39:15;;;;;;;;;;;;;;;23.59;79.22;100530.19;5053701;28;1084;-42
2021/06/30 07:41:43;;;;;;;;;;;;;;;23.65;78.45;100534.06;5052982;28;1103;-42
2021/06/30 07:44:10;;;;;;;;;;;;;;;23.65;78.57;100523.25;5053201;28;1966;-42
2021/06/30 07:46:36;;;;;;;;;;;;;;;23.65;78.31;100523.25;5053260;28;1099;-42
2021/06/30 07:49:03;;;;;;;;;;;;;;;23.66;79.11;100519.56;5053302;28;1087;-42
2021/06/30 07:51:29;;;;;;;;;;;;;;;23.65;78.49;100517.03;5053218;28;1123;-42
2021/06/30 07:53:56;;;;;;;;;;;;;;;23.62;79.00;100510.97;5053463;28;1001;-42
2021/06/30 07:56:33;;;;;;;;;;;;;;;23.66;78.37;100522.25;5053483;28;1092;-42
2021/06/30 07:59:01;;;;;;;;;;;;;;;23.68;79.10;100514.84;5053481;28;1079;-42
2021/06/30 08:01:28;;;;;;;;;;;;;;;23.65;78.65;100509.75;5053053;28;1784;-42
2021/06/30 08:03:54;;;;;;;;;;;;;;;23.68;78.57;100516.69;5051793;28;2095;-42
2021/06/30 08:06:21;;;;;;;;;;;;;;;23.65;78.78;100512.47;5053355;28;1093;-42
2021/06/30 08:08:47;;;;;;;;;;;;;;;23.65;78.79;100498.97;5053400;28;1032;-42
2021/06/30 08:11:15;;;;;;;;;;;;;;;23.68;79.08;100504.03;5053067;28;1103;-42
2021/06/30 08:13:42;;;;;;;;;;;;;;;23.66;78.73;100497.13;5053318;28;1060;-42
2021/06/30 08:16:10;;;;;;;;;;;;;;;23.69;78.64;100507.56;5053001;28;1181;-42
2021/06/30 08:18:37;;;;;;;;;;;;;;;23.65;78.58;100511.63;5052905;28;1004;-42
2021/06/30 08:21:03;;;;;;;;;;;;;;;23.67;78.71;100509.59;5053885;28;1072;-42
2021/06/30 08:23:30;;;;;;;;;;;;;;;23.68;78.98;100500.50;5056759;28;1886;-42
2021/06/30 08:25:56;;;;;;;;;;;;;;;23.72;78.50;100512.63;5056810;28;1189;-41
2021/06/30 08:28:24;;;;;;;;;;;;;;;23.71;78.89;100510.94;5057085;28;1066;-42
2021/06/30 08:30:51;;;;;;;;;;;;;;;23.73;78.78;100509.75;5056621;28;1064;-42
2021/06/30 08:33:19;;;;;;;;;;;;;;;23.68;78.82;100501.34;5056643;28;1277;-42
2021/06/30 08:35:45;;;;;;;;;;;;;;;23.68;78.75;100495.94;5056582;28;1107;-42
2021/06/30 08:38:18;;;;;;;;;;;;;;;23.69;78.43;100508.41;5056864;28;1001;-42
2021/06/30 08:40:45;;;;;;;;;;;;;;;23.69;79.25;100497.59;5056824;28;999;-42
2021/06/30 08:43:11;;;;;;;;;;;;;;;23.72;78.74;100491.88;5056341;28;1977;-42
2021/06/30 08:45:38;;;;;;;;;;;;;;;23.68;78.96;100495.09;5056724;28;1021;-42
2021/06/30 08:48:05;;;;;;;;;;;;;;;23.71;78.78;100492.88;5056705;28;1071;-42
2021/06/30 08:50:34;;;;;;;;;;;;;;;23.69;78.62;100499.47;5056651;28;1099;-42
2021/06/30 08:53:01;;;;;;;;;;;;;;;23.70;79.18;100490.38;5056596;28;1087;-42
2021/06/30 08:55:28;;;;;;;;;;;;;;;23.72;78.94;100499.97;5056443;28;1000;-42
2021/06/30 08:57:54;;;;;;;;;;;;;;;23.69;78.81;100491.38;5056189;28;1120;-42
2021/06/30 09:00:21;;;;;;;;;;;;;;;23.70;78.82;100483.09;5056146;28;1092;-42
2021/06/30 09:02:50;;;;;;;;;;;;;;;23.72;79.05;100491.03;5054841;28;1382;-42
2021/06/30 09:05:36;;;;;;;;;;;;;;;23.69;78.59;100497.59;5056197;28;1977;-43
2021/06/30 09:08:05;;;;;;;;;;;;;;;23.71;78.88;100497.44;5056333;28;1086;-42
2021/06/30 09:10:33;;;;;;;;;;;;;;;23.68;78.80;100495.94;5056252;28;1088;-42
2021/06/30 09:12:59;;;;;;;;;;;;;;;23.71;78.68;100500.97;5056232;28;1087;-42
2021/06/30 09:15:29;;;;;;;;;;;;;;;23.68;78.60;100498.63;5055842;28;1092;-42
2021/06/30 09:17:56;;;;;;;;;;;;;;;23.72;78.67;100501.84;5056255;28;1094;-42
2021/06/30 09:20:22;;;;;;;;;;;;;;;23.70;78.92;100496.59;5056069;28;1019;-42
2021/06/30 09:22:51;;;;;;;;;;;;;;;23.71;78.92;100492.88;5055737;28;1171;-42
2021/06/30 09:25:29;;;;;;;;;;;;;;;23.70;78.73;100495.78;5055928;28;1973;-42
2021/06/30 09:27:56;;;;;;;;;;;;;;;23.71;78.78;100489.34;5055912;28;1072;-42
2021/06/30 09:30:22;;;;;;;;;;;;;;;23.72;79.00;100494.56;5055871;28;1080;-42
2021/06/30 09:32:56;;;;;;;;;;;;;;;23.70;79.11;100484.97;5055515;28;1050;-42
2021/06/30 09:35:23;;;;;;;;;;;;;;;23.72;79.10;100474.84;5055491;28;1157;-42
2021/06/30 09:37:50;;;;;;;;;;;;;;;23.70;78.74;100474.16;5055449;28;1163;-42
2021/06/30 09:40:17;;;;;;;;;;;;;;;23.70;78.71;100477.72;5055510;28;1027;-43
2021/06/30 09:42:45;;;;;;;;;;;;;;;23.71;78.86;100471.28;5055333;28;1075;-42
2021/06/30 09:45:13;;;;;;;;;;;;;;;23.72;78.88;100464.88;5055213;28;1913;-42
2021/06/30 09:47:44;;;;;;;;;;;;;;;23.68;79.04;100458.13;5055259;28;1166;-42
2021/06/30 09:50:11;;;;;;;;;;;;;;;23.69;79.12;100470.59;5055506;28;1085;-42
2021/06/30 09:52:38;;;;;;;;;;;;;;;23.69;79.05;100459.81;5055570;28;1053;-42
2021/06/30 09:55:22;;;;;;;;;;;;;;;23.66;78.78;100452.06;5055397;28;1095;-41
2021/06/30 09:57:50;;;;;;;;;;;;;;;23.70;79.17;100461.50;5055068;28;1071;-42
2021/06/30 10:00:18;;;;;;;;;;;;;;;23.70;79.13;100460.69;5055038;28;945;-42
2021/06/30 10:02:48;;;;;;;;;;;;;;;23.67;78.86;100456.44;5053742;28;1399;-42
2021/06/30 10:05:14;;;;;;;;;;;;;;;23.68;79.29;100457.31;5055365;28;1989;-42
2021/06/30 10:07:41;;;;;;;;;;;;;;;23.68;78.88;100463.53;5054847;28;1114;-42
2021/06/30 10:10:09;;;;;;;;;;;;;;;23.69;78.82;100449.00;5054857;28;1088;-42
2021/06/30 10:12:36;;;;;;;;;;;;;;;23.65;78.94;100444.97;5055080;28;1017;-42
2021/06/30 10:15:05;;;;;;;;;;;;;;;23.67;79.16;100451.03;5055107;28;1092;-42
2021/06/30 10:17:32;;;;;;;;;;;;;;;23.68;79.03;100435.72;5054925;28;1030;-43
2021/06/30 10:20:01;;;;;;;;;;;;;;;23.68;79.14;100447.34;5054951;28;1083;-42
2021/06/30 10:22:28;;;;;;;;;;;;;;;23.69;78.81;100449.00;5054624;28;1071;-42
2021/06/30 10:24:55;;;;;;;;;;;;;;;23.69;78.92;100446.31;5054834;28;1906;-42
2021/06/30 10:27:22;;;;;;;;;;;;;;;23.65;79.20;100436.88;5054549;28;1135;-42
2021/06/30 10:29:53;;;;;;;;;;;;;;;23.70;78.92;100449.88;5054719;28;1092;-42
2021/06/30 10:32:21;;;;;;;;;;;;;;;23.67;79.10;100428.63;5054734;28;1047;-42
2021/06/30 10:34:50;;;;;;;;;;;;;;;23.71;79.35;100440.75;5054698;28;1062;-42
2021/06/30 10:37:21;;;;;;;;;;;;;;;23.66;79.15;100429.66;5054322;28;1084;-42
2021/06/30 10:39:48;;;;;;;;;;;;;;;23.69;78.94;100435.50;5054601;28;1096;-42
2021/06/30 10:42:19;;;;;;;;;;;;;;;23.69;79.26;100431.97;5054136;28;1174;-42
2021/06/30 10:44:46;;;;;;;;;;;;;;;23.70;79.01;100429.13;5053716;28;1972;-42
2021/06/30 10:47:27;;;;;;;;;;;;;;;23.67;78.91;100423.22;5054112;28;1146;-42
2021/06/30 10:50:22;;;;;;;;;;;;;;;23.66;79.35;100411.59;5054018;28;1182;-42
2021/06/30 10:52:49;;;;;;;;;;;;;;;23.67;79.03;100415.13;5054022;28;934;-42
2021/06/30 10:55:31;;;;;;;;;;;;;;;23.70;79.04;100418.31;5053943;28;1131;-42
2021/06/30 10:58:12;;;;;;;;;;;;;;;23.68;79.10;100404.16;5053844;28;2059;-42
2021/06/30 11:00:39;;;;;;;;;;;;;;;23.69;78.91;100411.22;5053822;28;1716;-43
2021/06/30 11:03:36;;;;;;;;;;;;;;;23.63;79.28;100390.31;5052627;28;1469;-42
2021/06/30 11:06:24;;;;;;;;;;;;;;;23.62;79.22;100396.75;5053995;28;1069;-42
2021/06/30 11:08:51;;;;;;;;;;;;;;;23.65;79.46;100407.19;5053771;28;1091;-42
2021/06/30 11:11:18;;;;;;;;;;;;;;;23.66;79.45;100397.25;5054030;28;1039;-42
2021/06/30 11:13:55;;;;;;;;;;;;;;;23.69;79.36;100388.78;5053667;28;1155;-42
2021/06/30 11:16:36;;;;;;;;;;;;;;;23.63;79.24;100382.22;5053987;28;1083;-42
2021/06/30 11:19:03;;;;;;;;;;;;;;;23.69;79.28;100388.78;5036980;28;1884;-42
2021/06/30 11:21:44;;;;;;;;;;;;;;;23.66;79.10;100381.88;5053897;28;999;-42
2021/06/30 11:24:25;;;;;;;;;;;;;;;23.68;79.09;100381.72;5053642;28;1915;-42
2021/06/30 11:26:52;;;;;;;;;;;;;;;23.71;79.30;100376.78;5053535;28;2052;-42
2021/06/30 11:29:37;;;;;;;;;;;;;;;23.68;79.24;100374.44;5053501;28;1106;-42
2021/06/30 11:32:03;;;;;;;;;;;;;;;23.72;79.40;100381.19;5053694;28;1940;-42
2021/06/30 11:34:30;;;;;;;;;;;;;;;23.71;79.06;100365.16;5053725;28;1085;-42
2021/06/30 11:36:58;;;;;;;;;;;;;;;23.68;79.39;100370.91;5053696;28;1076;-42
2021/06/30 11:39:28;;;;;;;;;;;;;;;23.69;79.05;100375.28;5053685;28;1046;-42
2021/06/30 11:41:54;;;;;;;;;;;;;;;23.70;78.99;100380.50;5053026;28;1079;-42
2021/06/30 11:44:33;;;;;;;;;;;;;;;23.66;79.33;100363.00;5053274;28;1910;-42
2021/06/30 11:47:02;;;;;;;;;;;;;;;23.68;79.32;100365.53;5053292;28;1080;-42
2021/06/30 11:49:28;;;;;;;;;;;;;;;23.71;79.21;100367.84;5053550;28;1063;-42
2021/06/30 11:52:00;;;;;;;;;;;;;;;23.71;79.15;100368.69;5053529;28;1051;-42
2021/06/30 11:54:27;;;;;;;;;;;;;;;23.68;79.00;100368.22;5053428;28;1073;-42
2021/06/30 11:56:54;;;;;;;;;;;;;;;23.68;78.97;100350.16;5057622;28;1047;-42
2021/06/30 11:59:22;;;;;;;;;;;;;;;23.69;79.29;100353.69;5057299;28;1340;-42
2021/06/30 12:01:49;;;;;;;;;;;;;;;23.71;79.02;100365.16;5057502;28;1403;-42
2021/06/30 12:04:17;;;;;;;;;;;;;;;23.69;79.33;100365.31;5055793;28;1982;-42
2021/06/30 12:06:45;;;;;;;;;;;;;;;23.67;79.30;100348.47;5057420;28;1067;-42
2021/06/30 12:09:14;;;;;;;;;;;;;;;23.69;79.03;100361.78;5057442;28;1088;-42
2021/06/30 12:11:41;;;;;;;;;;;;;;;23.71;79.20;100355.19;5057368;28;1035;-42
2021/06/30 12:14:09;;;;;;;;;;;;;;;23.66;79.38;100341.41;5057346;28;1081;-42
2021/06/30 12:16:43;;;;;;;;;;;;;;;23.68;79.45;100358.25;5057317;28;1011;-42
2021/06/30 12:19:10;;;;;;;;;;;;;;;23.72;79.04;100340.69;5057185;28;996;-42
2021/06/30 12:21:36;;;;;;;;;;;;;;;23.70;79.30;100348.13;5057170;28;1073;-42
2021/06/30 12:24:03;;;;;;;;;;;;;;;23.73;79.07;100357.72;5056768;28;1909;-42
2021/06/30 12:26:31;;;;;;;;;;;;;;;23.71;79.58;100343.56;5057120;28;1076;-42
2021/06/30 12:28:57;;;;;;;;;;;;;;;23.72;78.91;100334.44;5057024;28;1080;-42
2021/06/30 12:31:24;;;;;;;;;;;;;;;23.71;79.36;100336.28;5057139;28;1011;-42
2021/06/30 12:33:50;;;;;;;;;;;;;;;23.69;79.07;100335.63;5057004;28;1087;-42
2021/06/30 12:36:20;;;;;;;;;;;;;;;23.71;79.50;100336.28;5056923;28;1041;-42
2021/06/30 12:38:46;;;;;;;;;;;;;;;23.72;79.04;100321.78;5056900;28;997;-42
2021/06/30 12:41:13;;;;;;;;;;;;;;;23.72;79.20;100351.47;5056568;28;1344;-42
2021/06/30 12:43:41;;;;;;;;;;;;;;;23.68;79.25;100328.56;5056740;28;999;-42
2021/06/30 12:46:16;;;;;;;;;;;;;;;23.69;79.09;100330.22;5056676;28;1984;-42
2021/06/30 12:48:43;;;;;;;;;;;;;;;23.71;79.13;100327.34;5056914;28;1932;-42
2021/06/30 12:51:11;;;;;;;;;;;;;;;23.69;79.25;100314.03;5056675;28;1063;-42